createdAt,value
2023-02-20T00:00:44.369Z,2.05
2023-02-20T00:04:06.588Z,1.80
2023-02-20T00:07:28.823Z,2.10
2023-02-20T00:10:51.078Z,2.33
2023-02-20T00:14:14.127Z,1.80
2023-02-20T00:17:36.443Z,1.98
2023-02-20T00:20:58.673Z,1.88
2023-02-20T00:24:21.245Z,2.28
2023-02-20T00:27:44.378Z,2.08
2023-02-20T00:31:08.098Z,1.90
2023-02-20T00:37:55.357Z,2.25
2023-02-20T00:41:17.786Z,1.98
2023-02-20T00:44:40.164Z,1.75
2023-02-20T00:48:02.431Z,1.90
2023-02-20T00:51:26.151Z,2.25
2023-02-20T00:54:48.373Z,1.75
2023-02-20T00:58:10.574Z,1.77
2023-02-20T01:01:33.279Z,1.70
2023-02-20T01:04:56.790Z,1.90
2023-02-20T01:08:19.042Z,1.80
2023-02-20T01:11:45.179Z,1.90
2023-02-20T01:15:11.026Z,1.77
2023-02-20T01:18:33.422Z,1.80
2023-02-20T01:21:55.899Z,1.73
2023-02-20T01:25:18.110Z,1.75
2023-02-20T01:28:43.187Z,1.60
2023-02-20T01:32:05.558Z,1.88
2023-02-20T01:35:31.876Z,2.17
2023-02-20T01:38:54.558Z,1.80
2023-02-20T01:42:23.603Z,2.03
2023-02-20T01:45:49.699Z,1.92
2023-02-20T01:49:17.564Z,2.03
2023-02-20T01:52:42.522Z,1.73
2023-02-20T01:56:09.005Z,2.20
2023-02-20T01:59:35.606Z,2.17
2023-02-20T02:03:04.141Z,1.90
2023-02-20T02:06:28.450Z,1.60
2023-02-20T02:09:59.115Z,2.10
2023-02-20T02:13:23.981Z,1.92
2023-02-20T02:17:11.674Z,1.90
2023-02-20T02:20:51.929Z,1.90
2023-02-20T02:24:35.714Z,1.95
2023-02-20T02:28:42.287Z,2.10
2023-02-20T02:32:38.254Z,1.70
2023-02-20T02:36:39.685Z,2.05
2023-02-20T02:40:12.856Z,2.17
2023-02-20T02:43:48.187Z,1.92
2023-02-20T02:47:55.118Z,1.95
2023-02-20T02:51:29.796Z,2.00
2023-02-20T02:54:52.143Z,2.00
2023-02-20T02:58:15.930Z,2.17
2023-02-20T03:01:47.578Z,2.22
2023-02-20T03:05:12.597Z,2.00
2023-02-20T03:08:40.599Z,2.00
2023-02-20T03:12:03.826Z,2.28
2023-02-20T03:15:36.478Z,1.90
2023-02-20T03:19:03.183Z,1.88
2023-02-20T03:22:43.433Z,2.25
2023-02-20T03:26:18.918Z,1.83
2023-02-20T03:29:43.291Z,1.80
2023-02-20T03:33:49.088Z,1.77
2023-02-20T03:37:40.318Z,1.63
2023-02-20T03:41:23.298Z,2.22
2023-02-20T03:44:46.995Z,2.00
2023-02-20T03:48:24.394Z,1.90
2023-02-20T03:52:00.039Z,2.17
2023-02-20T03:55:34.199Z,1.77
2023-02-20T03:59:18.278Z,1.70
2023-02-20T04:02:44.938Z,1.70
2023-02-20T04:06:10.084Z,2.03
2023-02-20T04:12:58.309Z,1.70
2023-02-20T04:16:22.819Z,2.00
2023-02-20T04:19:45.863Z,2.35
2023-02-20T04:23:18.033Z,1.70
2023-02-20T04:26:40.964Z,1.95
2023-02-20T04:30:04.562Z,2.17
2023-02-20T04:33:27.220Z,2.00
2023-02-20T04:37:15.762Z,1.58
2023-02-20T04:40:39.052Z,1.70
2023-02-20T04:44:20.110Z,1.65
2023-02-20T04:47:46.187Z,1.75
2023-02-20T04:51:08.548Z,1.80
2023-02-20T04:54:30.825Z,1.88
2023-02-20T04:57:54.053Z,1.90
2023-02-20T05:01:16.991Z,1.58
2023-02-20T05:04:39.325Z,1.50
2023-02-20T05:08:04.763Z,1.65
2023-02-20T05:11:26.987Z,1.58
2023-02-20T05:14:49.211Z,1.60
2023-02-20T05:18:11.478Z,1.40
2023-02-20T05:21:52.881Z,1.40
2023-02-20T05:25:15.762Z,1.30
2023-02-20T05:28:39.859Z,1.55
2023-02-20T05:32:02.601Z,1.42
2023-02-20T05:35:24.879Z,1.48
2023-02-20T05:38:49.144Z,1.60
2023-02-20T05:42:11.472Z,1.30
2023-02-20T05:45:33.714Z,1.73
2023-02-20T05:48:56.269Z,1.27
2023-02-20T05:52:18.541Z,1.10
2023-02-20T05:55:40.786Z,1.38
2023-02-20T05:59:03.073Z,1.20
2023-02-20T06:02:25.263Z,1.20
2023-02-20T06:05:47.569Z,1.45
2023-02-20T06:09:11.679Z,1.10
2023-02-20T06:12:33.933Z,1.27
2023-02-20T06:15:56.177Z,1.23
2023-02-20T06:19:22.385Z,1.30
2023-02-20T06:22:44.713Z,1.33
2023-02-20T06:26:07.595Z,1.38
2023-02-20T06:29:30.204Z,1.27
2023-02-20T06:32:52.411Z,1.25
2023-02-20T06:36:27.178Z,1.42
2023-02-20T06:39:49.514Z,1.37
2023-02-20T06:43:11.744Z,1.10
2023-02-20T06:46:33.996Z,1.20
2023-02-20T06:49:56.334Z,1.48
2023-02-20T06:53:18.596Z,1.15
2023-02-20T06:56:40.897Z,1.20
2023-02-20T07:00:05.619Z,1.10
2023-02-20T07:03:27.962Z,1.00
2023-02-20T07:06:50.398Z,0.98
2023-02-20T07:10:12.691Z,1.00
2023-02-20T07:13:35.124Z,0.98
2023-02-20T07:16:57.425Z,1.00
2023-02-20T07:20:19.658Z,1.00
2023-02-20T07:23:42.142Z,0.90
2023-02-20T07:30:26.940Z,0.98
2023-02-20T07:33:49.163Z,1.00
2023-02-20T07:37:11.386Z,0.73
2023-02-20T07:40:33.749Z,0.80
2023-02-20T07:43:56.471Z,0.80
2023-02-20T07:47:19.058Z,0.80
2023-02-20T07:50:41.243Z,0.80
2023-02-20T07:54:03.550Z,1.00
2023-02-20T07:57:25.954Z,0.80
2023-02-20T08:00:51.686Z,1.10
2023-02-20T08:04:14.106Z,0.50
2023-02-20T08:07:36.570Z,0.82
2023-02-20T08:11:08.249Z,0.70
2023-02-20T08:14:32.013Z,0.80
2023-02-20T08:17:54.228Z,0.90
2023-02-20T08:21:16.482Z,1.00
2023-02-20T08:24:38.714Z,0.80
2023-02-20T08:28:00.945Z,0.77
2023-02-20T08:31:32.265Z,0.70
2023-02-20T08:34:55.263Z,0.60
2023-02-20T08:38:46.779Z,0.80
2023-02-20T08:42:09.070Z,0.75
2023-02-20T08:45:31.323Z,0.68
2023-02-20T08:48:53.577Z,0.60
2023-02-20T08:52:16.572Z,0.60
2023-02-20T08:55:38.825Z,0.60
2023-02-20T08:59:01.064Z,0.45
2023-02-20T09:02:26.174Z,0.60
2023-02-20T09:05:48.996Z,0.40
2023-02-20T09:09:11.263Z,0.70
2023-02-20T09:12:33.812Z,0.60
2023-02-20T09:15:56.010Z,0.70
2023-02-20T09:19:18.679Z,0.50
2023-02-20T09:22:41.062Z,0.52
2023-02-20T09:26:04.608Z,0.65
2023-02-20T09:29:27.104Z,0.50
2023-02-20T09:32:50.469Z,0.50
2023-02-20T09:36:12.882Z,0.60
2023-02-20T09:39:35.431Z,0.60
2023-02-20T09:43:00.494Z,0.60
2023-02-20T09:46:24.161Z,0.50
2023-02-20T09:49:46.467Z,0.57
2023-02-20T09:53:31.976Z,0.65
2023-02-20T09:56:59.120Z,6.20
2023-02-20T10:00:48.369Z,26.92
2023-02-20T10:04:16.178Z,23.30
2023-02-20T10:07:43.158Z,21.17
2023-02-20T10:11:09.417Z,18.45
2023-02-20T10:15:04.425Z,16.67
2023-02-20T10:18:35.991Z,16.15
2023-02-20T10:22:03.918Z,14.13
2023-02-20T10:25:36.867Z,14.20
2023-02-20T10:29:12.792Z,13.18
2023-02-20T10:32:50.426Z,11.85
2023-02-20T10:36:51.853Z,10.73
2023-02-20T10:40:34.779Z,9.95
2023-02-20T10:44:02.950Z,8.95
2023-02-20T10:47:36.521Z,8.77
2023-02-20T10:51:10.431Z,8.65
2023-02-20T10:54:44.832Z,8.10
2023-02-20T10:58:17.721Z,7.78
2023-02-20T11:01:40.675Z,7.10
2023-02-20T11:05:17.401Z,7.28
2023-02-20T11:08:39.654Z,6.70
2023-02-20T11:12:02.249Z,6.28
2023-02-20T11:15:28.668Z,5.72
2023-02-20T11:19:08.850Z,5.35
2023-02-20T11:23:03.216Z,5.07
2023-02-20T11:26:32.171Z,5.47
2023-02-20T11:30:16.522Z,4.95
2023-02-20T11:33:47.365Z,4.60
2023-02-20T11:37:13.712Z,4.38
2023-02-20T11:40:36.204Z,4.30
2023-02-20T11:44:25.501Z,4.68
2023-02-20T11:48:06.142Z,3.40
2023-02-20T11:51:40.339Z,3.95
2023-02-20T11:55:21.250Z,3.22
2023-02-20T11:58:45.537Z,3.40
2023-02-20T12:02:19.728Z,2.95
2023-02-20T12:05:44.373Z,3.55
2023-02-20T12:09:11.671Z,3.17
2023-02-20T12:12:33.895Z,3.05
2023-02-20T12:16:08.381Z,3.20
2023-02-20T12:19:45.722Z,2.50
2023-02-20T12:23:38.548Z,2.53
2023-02-20T12:27:04.454Z,2.47
2023-02-20T12:30:29.744Z,3.10
2023-02-20T12:33:56.914Z,4.88
2023-02-20T12:37:33.922Z,4.28
2023-02-20T12:40:59.164Z,3.88
2023-02-20T12:48:21.415Z,3.45
2023-02-20T12:51:53.690Z,3.47
2023-02-20T12:55:22.237Z,3.97
2023-02-20T12:59:20.629Z,3.40
2023-02-20T13:02:49.333Z,3.90
2023-02-20T13:06:15.628Z,3.75
2023-02-20T13:09:46.903Z,3.40
2023-02-20T13:13:11.081Z,3.50
2023-02-20T13:16:52.131Z,3.28
2023-02-20T13:20:19.265Z,3.13
2023-02-20T13:23:42.199Z,2.85
2023-02-20T13:27:07.200Z,3.03
2023-02-20T13:30:29.785Z,3.10
2023-02-20T13:34:08.026Z,2.47
2023-02-20T13:37:37.437Z,2.75
2023-02-20T13:41:06.737Z,2.90
2023-02-20T13:44:29.636Z,2.92
2023-02-20T13:48:42.092Z,3.42
2023-02-20T13:52:43.070Z,2.75
2023-02-20T13:56:05.378Z,2.55
2023-02-20T13:59:28.847Z,2.30
2023-02-20T14:02:51.558Z,2.42
2023-02-20T14:06:19.116Z,2.65
2023-02-20T14:09:42.975Z,2.00
2023-02-20T14:13:23.004Z,1.92
2023-02-20T14:16:50.324Z,2.10
2023-02-20T14:20:37.186Z,2.22
2023-02-20T14:24:16.706Z,2.65
2023-02-20T14:27:40.504Z,1.92
2023-02-20T14:31:22.549Z,1.50
2023-02-20T14:34:50.882Z,1.77
2023-02-20T14:38:43.920Z,2.10
2023-02-20T14:42:13.269Z,2.10
2023-02-20T14:45:36.105Z,1.58
2023-02-20T14:49:15.786Z,1.65
2023-02-20T14:52:37.993Z,1.95
2023-02-20T14:56:12.806Z,1.70
2023-02-20T14:59:38.754Z,1.50
2023-02-20T15:03:06.206Z,1.45
2023-02-20T15:06:30.748Z,1.73
2023-02-20T15:09:56.193Z,1.85
2023-02-20T15:13:26.454Z,1.67
2023-02-20T15:16:49.068Z,1.70
2023-02-20T15:20:34.966Z,1.63
2023-02-20T15:27:34.065Z,1.55
2023-02-20T15:31:11.386Z,1.67
2023-02-20T15:34:34.919Z,1.80
2023-02-20T15:38:01.193Z,1.63
2023-02-20T15:41:24.084Z,1.52
2023-02-20T15:44:46.735Z,1.73
2023-02-20T15:48:10.538Z,1.42
2023-02-20T15:51:39.365Z,1.48
2023-02-20T15:55:01.834Z,1.38
2023-02-20T15:58:30.489Z,1.60
2023-02-20T16:01:55.268Z,1.45
2023-02-20T16:05:17.664Z,1.42
2023-02-20T16:08:39.897Z,1.30
2023-02-20T16:12:02.434Z,1.25
2023-02-20T16:15:27.499Z,1.50
2023-02-20T16:18:51.724Z,1.58
2023-02-20T16:22:13.954Z,1.15
2023-02-20T16:25:36.283Z,1.40
2023-02-20T16:29:01.065Z,1.42
2023-02-20T16:32:27.986Z,1.58
2023-02-20T16:35:54.183Z,2.22
2023-02-20T16:39:26.003Z,1.80
2023-02-20T16:42:49.165Z,1.10
2023-02-20T16:46:11.606Z,1.55
2023-02-20T16:49:37.391Z,1.52
2023-02-20T16:53:06.261Z,1.80
2023-02-20T16:56:28.521Z,1.65
2023-02-20T16:59:57.390Z,1.50
2023-02-20T17:03:19.677Z,1.42
2023-02-20T17:06:42.097Z,1.65
2023-02-20T17:10:08.672Z,1.58
2023-02-20T17:13:30.928Z,1.70
2023-02-20T17:16:53.319Z,1.60
2023-02-20T17:20:18.883Z,1.63
2023-02-20T17:23:41.146Z,1.40
2023-02-20T17:27:03.534Z,2.10
2023-02-20T17:30:26.308Z,2.03
2023-02-20T17:33:48.719Z,1.60
2023-02-20T17:37:11.319Z,2.17
2023-02-20T17:40:33.539Z,1.88
2023-02-20T17:43:55.853Z,2.85
2023-02-20T17:47:18.187Z,2.40
2023-02-20T17:50:40.479Z,1.85
2023-02-20T17:54:04.190Z,1.80
2023-02-20T17:57:28.247Z,2.42
2023-02-20T18:00:50.552Z,2.28
2023-02-20T18:04:13.211Z,2.90
2023-02-20T18:07:35.476Z,2.63
2023-02-20T18:10:57.851Z,2.58
2023-02-20T18:14:20.675Z,1.92
2023-02-20T18:17:42.910Z,2.00
2023-02-20T18:21:05.496Z,3.15
2023-02-20T18:24:30.081Z,2.40
2023-02-20T18:27:53.077Z,2.13
2023-02-20T18:31:17.718Z,2.50
2023-02-20T18:34:40.354Z,2.20
2023-02-20T18:38:02.835Z,2.30
2023-02-20T18:41:25.899Z,2.80
2023-02-20T18:44:49.083Z,6.32
2023-02-20T18:48:11.606Z,9.23
2023-02-20T18:51:36.997Z,8.05
2023-02-20T18:54:59.291Z,8.55
2023-02-20T18:58:22.008Z,9.32
2023-02-20T19:01:45.063Z,9.10
2023-02-20T19:05:07.594Z,8.07
2023-02-20T19:08:29.891Z,6.80
2023-02-20T19:11:55.003Z,7.03
2023-02-20T19:15:17.595Z,6.95
2023-02-20T19:18:49.870Z,6.22
2023-02-20T19:22:12.849Z,6.00
2023-02-20T19:25:35.157Z,6.05
2023-02-20T19:28:57.357Z,6.13
2023-02-20T19:32:20.407Z,5.20
2023-02-20T19:35:42.735Z,5.65
2023-02-20T19:39:04.990Z,4.85
2023-02-20T19:42:28.636Z,4.95
2023-02-20T19:45:51.041Z,5.20
2023-02-20T19:49:13.725Z,5.03
2023-02-20T19:52:36.046Z,4.60
2023-02-20T19:55:58.301Z,4.50
2023-02-20T19:59:20.983Z,5.20
2023-02-20T20:02:43.833Z,5.20
2023-02-20T20:06:08.997Z,5.35
2023-02-20T20:09:38.585Z,5.03
2023-02-20T20:13:00.863Z,5.20
2023-02-20T20:16:24.640Z,5.13
2023-02-20T20:19:58.575Z,5.45
2023-02-20T20:23:21.523Z,6.88
2023-02-20T20:26:43.900Z,4.90
2023-02-20T20:30:09.572Z,5.05
2023-02-20T20:33:32.285Z,4.95
2023-02-20T20:36:54.486Z,5.18
2023-02-20T20:40:16.991Z,5.32
2023-02-20T20:43:42.033Z,5.22
2023-02-20T20:47:05.238Z,5.60
2023-02-20T20:50:27.851Z,5.53
2023-02-20T20:53:51.301Z,4.70
2023-02-20T20:57:13.568Z,5.65
2023-02-20T21:00:36.368Z,4.88
2023-02-20T21:03:58.618Z,4.60
2023-02-20T21:07:21.422Z,5.35
2023-02-20T21:10:43.892Z,5.07
2023-02-20T21:14:06.490Z,4.90
2023-02-20T21:17:28.894Z,4.70
2023-02-20T21:20:51.191Z,5.20
2023-02-20T21:24:13.462Z,4.72
2023-02-20T21:27:35.835Z,4.90
2023-02-20T21:30:58.437Z,4.50
2023-02-20T21:34:20.677Z,4.90
2023-02-20T21:37:42.894Z,4.63
2023-02-20T21:41:05.327Z,4.50
2023-02-20T21:44:28.091Z,4.88
2023-02-20T21:47:50.322Z,4.95
2023-02-20T21:51:12.816Z,4.38
2023-02-20T21:54:35.255Z,4.55
2023-02-20T21:57:57.820Z,4.18
2023-02-20T22:01:20.072Z,4.60
2023-02-20T22:04:42.263Z,4.40
2023-02-20T22:08:22.991Z,4.18
2023-02-20T22:12:03.962Z,4.72
2023-02-20T22:15:44.916Z,4.80
2023-02-20T22:19:25.838Z,5.28
2023-02-20T22:23:06.768Z,4.50
2023-02-20T22:26:47.464Z,4.53
2023-02-20T22:30:28.717Z,5.00
2023-02-20T22:34:09.694Z,4.55
2023-02-20T22:37:50.274Z,4.30
2023-02-20T22:41:39.798Z,4.50
2023-02-20T22:45:20.846Z,4.35
2023-02-20T22:49:01.733Z,4.10
2023-02-20T22:52:42.702Z,4.35
2023-02-20T22:56:23.443Z,4.30
2023-02-20T23:00:04.480Z,4.38
2023-02-20T23:03:45.562Z,3.95
2023-02-20T23:07:26.242Z,3.88
2023-02-20T23:11:06.941Z,3.92
2023-02-20T23:14:47.702Z,3.83
2023-02-20T23:18:28.635Z,4.03
2023-02-20T23:22:09.617Z,3.60
2023-02-20T23:25:50.654Z,3.72
2023-02-20T23:29:31.427Z,3.63
2023-02-20T23:33:12.322Z,3.72
2023-02-20T23:36:53.260Z,3.22
2023-02-20T23:40:36.782Z,4.00
2023-02-20T23:44:17.516Z,3.30
2023-02-20T23:47:59.430Z,3.33
2023-02-20T23:51:40.233Z,3.35
2023-02-20T23:55:21.245Z,3.00
2023-02-20T23:59:01.964Z,2.78
